Terminal Aerodrome Forecast
Issued by NWS Grand Forks, ND

Home | Current Version | Previous Version | Graphics & Text | Print | Product List | Glossary On
Versions: 1 2 3 4 5 6 7 8 9 10 11 12 13 14 15 16 17 18 19 20 21 22 23 24
000
FTUS43 KFGF 251909 AAC
TAFGFK
TAF AMD
KGFK 251909Z 2519/2618 13012G18KT P6SM -SHRA BKN040
      TEMPO 2519/2520 32007KT
     FM252000 10010G17KT P6SM -SHRA BKN050
     FM252200 10012KT P6SM -SHRA VCTS BKN040CB
     FM260200 16009KT P6SM -SHRA BKN025
     FM260300 16006KT P6SM BKN025
     FM260800 22008KT P6SM BKN020=

USA.gov is the U.S. government's official web portal to all federal, state and local government web resources and services.